Time;durP1;ratioP1;P1;durP2;ratioP2;P2;SDS_P1;SDS_P2;PMS_P1;PMS_P2;Temp;Humidity;BMP_temperature;BMP_pressure;BME280_temperature;BME280_humidity;BME280_pressure;Samples;Min_cycle;Max_cycle;Signal;HPM_P1;HPM_P2
2021/10/23 00:01:41;;;;;;;0.93;0.70;;;14.50;77.90;;;;;;5113400;28;20043;-58
2021/10/23 00:04:06;;;;;;;0.63;0.43;;;14.50;77.90;;;;;;5130017;27;20046;-57
2021/10/23 00:06:32;;;;;;;0.55;0.32;;;14.50;77.90;;;;;;5133774;27;20407;-57
2021/10/23 00:08:58;;;;;;;1.30;0.57;;;14.50;77.90;;;;;;5133665;27;20049;-58
2021/10/23 00:11:23;;;;;;;0.75;0.60;;;14.60;77.90;;;;;;5133974;27;20154;-58
2021/10/23 00:13:49;;;;;;;0.85;0.60;;;14.50;77.90;;;;;;5133842;27;20118;-59
2021/10/23 00:16:15;;;;;;;2.55;0.80;;;14.50;77.90;;;;;;5133962;27;20050;-57
2021/10/23 00:18:41;;;;;;;0.80;0.45;;;14.50;77.90;;;;;;5132883;27;20104;-60
2021/10/23 00:21:06;;;;;;;2.50;0.55;;;14.60;78.00;;;;;;5115265;27;20411;-59
2021/10/23 00:23:35;;;;;;;1.27;0.55;;;14.40;77.80;;;;;;5133530;27;20035;-57
2021/10/23 00:26:01;;;;;;;1.10;0.60;;;14.50;77.90;;;;;;5133393;27;20169;-59
2021/10/23 00:28:34;;;;;;;1.58;0.43;;;14.50;77.90;;;;;;5115376;27;20126;-58
2021/10/23 00:31:00;;;;;;;1.30;0.70;;;14.50;77.90;;;;;;5134098;27;20039;-59
2021/10/23 00:33:26;;;;;;;1.35;0.70;;;14.50;77.90;;;;;;5133921;27;20487;-58
2021/10/23 00:35:54;;;;;;;1.20;0.70;;;14.50;78.00;;;;;;5133573;27;20395;-58
2021/10/23 00:38:27;;;;;;;0.93;0.60;;;14.50;78.00;;;;;;5115377;28;20043;-59
2021/10/23 00:40:55;;;;;;;2.70;0.70;;;14.50;78.00;;;;;;5132559;27;20049;-58
2021/10/23 00:43:21;;;;;;;1.75;0.70;;;14.50;77.90;;;;;;5133027;27;20122;-58
2021/10/23 00:45:47;;;;;;;1.38;0.60;;;14.60;78.00;;;;;;5114850;28;20458;-58
2021/10/23 00:48:13;;;;;;;0.65;0.52;;;14.50;77.90;;;;;;5133584;27;20069;-57
2021/10/23 00:50:39;;;;;;;0.98;0.50;;;14.50;78.00;;;;;;5133246;27;20189;-58
2021/10/23 00:53:05;;;;;;;0.50;0.40;;;14.50;78.00;;;;;;5132972;27;20081;-59
2021/10/23 00:55:33;;;;;;;1.70;0.60;;;14.50;78.00;;;;;;5133069;27;20043;-58
2021/10/23 00:57:59;;;;;;;0.90;0.55;;;14.50;78.00;;;;;;5112498;28;20048;-59
2021/10/23 01:00:25;;;;;;;2.08;0.60;;;14.50;77.90;;;;;;5112553;28;20043;-59
2021/10/23 01:02:51;;;;;;;1.60;1.13;;;14.50;77.90;;;;;;5115385;28;20089;-58
2021/10/23 01:05:19;;;;;;;1.42;0.80;;;14.50;77.90;;;;;;5117076;28;20126;-58
2021/10/23 01:07:45;;;;;;;2.42;0.82;;;14.50;77.90;;;;;;5131391;27;20055;-58
2021/10/23 01:10:11;;;;;;;1.27;0.50;;;14.50;77.90;;;;;;5137272;27;20483;-58
2021/10/23 01:12:42;;;;;;;0.98;0.82;;;14.50;77.90;;;;;;5136982;27;20039;-58
2021/10/23 01:15:16;;;;;;;1.13;0.50;;;14.50;77.90;;;;;;5137137;27;20035;-58
2021/10/23 01:17:41;;;;;;;2.00;0.60;;;14.50;78.00;;;;;;5136937;27;20031;-58
2021/10/23 01:20:08;;;;;;;0.80;0.55;;;14.50;77.90;;;;;;5136683;27;20051;-58
2021/10/23 01:22:34;;;;;;;0.90;0.45;;;14.50;77.90;;;;;;5136775;27;20039;-58
2021/10/23 01:24:59;;;;;;;1.13;0.55;;;14.50;78.00;;;;;;5137011;27;20043;-58
2021/10/23 01:27:25;;;;;;;1.17;0.60;;;14.50;77.90;;;;;;5136649;27;20031;-57
2021/10/23 01:29:51;;;;;;;0.95;0.40;;;14.50;77.90;;;;;;5136805;27;20394;-59
2021/10/23 01:32:17;;;;;;;1.38;0.63;;;14.50;77.90;;;;;;5137170;27;20459;-57
2021/10/23 01:34:42;;;;;;;2.85;0.68;;;14.50;77.90;;;;;;5136776;27;20059;-57
2021/10/23 01:37:08;;;;;;;1.00;0.50;;;14.60;78.00;;;;;;5136913;27;20043;-58
2021/10/23 01:39:35;;;;;;;0.85;0.52;;;14.50;77.90;;;;;;5136297;27;20051;-58
2021/10/23 01:42:01;;;;;;;1.13;0.50;;;14.50;77.90;;;;;;5136905;27;20120;-59
2021/10/23 01:44:30;;;;;;;0.68;0.52;;;14.50;78.00;;;;;;5135994;27;20428;-59
2021/10/23 01:46:56;;;;;;;1.88;0.80;;;14.40;77.90;;;;;;5136587;27;20047;-58
2021/10/23 01:49:22;;;;;;;1.38;0.60;;;14.50;77.90;;;;;;5136124;27;20042;-58
2021/10/23 01:51:48;;;;;;;1.25;0.73;;;14.50;77.90;;;;;;5136518;27;20071;-58
2021/10/23 01:54:14;;;;;;;2.08;0.70;;;14.50;78.00;;;;;;5136427;27;20398;-59
2021/10/23 01:56:41;;;;;;;0.63;0.40;;;14.50;78.00;;;;;;5118236;27;20126;-58
2021/10/23 01:59:08;;;;;;;1.88;0.60;;;14.50;78.00;;;;;;5136128;27;20082;-59
2021/10/23 02:01:34;;;;;;;1.10;0.50;;;14.50;77.90;;;;;;5135750;27;20100;-59
2021/10/23 02:04:00;;;;;;;1.05;0.70;;;14.50;78.00;;;;;;5136132;27;20475;-58
2021/10/23 02:06:26;;;;;;;0.93;0.57;;;14.50;78.00;;;;;;5136214;27;20038;-59
2021/10/23 02:08:51;;;;;;;1.50;0.70;;;14.40;77.90;;;;;;5135953;27;20068;-59
2021/10/23 02:11:18;;;;;;;0.47;0.40;;;14.40;77.90;;;;;;5135978;27;20039;-59
2021/10/23 02:13:44;;;;;;;1.35;0.45;;;14.50;78.60;;;;;;5135998;27;20095;-59
2021/10/23 02:16:10;;;;;;;1.27;0.60;;;14.40;77.90;;;;;;5117270;27;20043;-59
2021/10/23 02:18:36;;;;;;;0.75;0.60;;;14.50;78.00;;;;;;5135913;27;20043;-58
2021/10/23 02:21:02;;;;;;;1.52;0.60;;;14.40;77.90;;;;;;5135440;27;20063;-59
2021/10/23 02:23:28;;;;;;;2.08;0.43;;;14.40;77.90;;;;;;5136249;27;20047;-58
2021/10/23 02:25:54;;;;;;;0.60;0.55;;;14.50;77.90;;;;;;5135821;27;20043;-58
2021/10/23 02:28:20;;;;;;;1.38;0.82;;;14.50;78.00;;;;;;5136017;27;20054;-59
2021/10/23 02:30:46;;;;;;;1.45;0.93;;;14.40;77.90;;;;;;5135948;27;20355;-59
2021/10/23 02:33:12;;;;;;;1.10;0.82;;;14.40;77.90;;;;;;5135429;27;20035;-59
2021/10/23 02:35:37;;;;;;;0.88;0.50;;;14.40;77.90;;;;;;5136277;27;20039;-59
2021/10/23 02:38:03;;;;;;;0.95;0.50;;;14.40;77.90;;;;;;5136349;27;20441;-58
2021/10/23 02:40:29;;;;;;;0.63;0.40;;;14.40;77.90;;;;;;5135559;27;20043;-58
2021/10/23 02:42:55;;;;;;;0.70;0.50;;;14.40;77.90;;;;;;5135259;27;20043;-59
2021/10/23 02:45:20;;;;;;;1.00;0.50;;;14.40;78.00;;;;;;5135870;27;20043;-59
2021/10/23 02:47:46;;;;;;;0.80;0.60;;;14.40;77.90;;;;;;5135002;27;20067;-59
2021/10/23 02:50:12;;;;;;;0.98;0.47;;;14.40;77.90;;;;;;5135599;27;20046;-58
2021/10/23 02:52:38;;;;;;;0.50;0.40;;;14.40;77.90;;;;;;5135358;27;20042;-57
2021/10/23 02:55:05;;;;;;;0.95;0.45;;;14.40;77.90;;;;;;5135304;27;20044;-59
2021/10/23 02:57:31;;;;;;;0.68;0.55;;;14.40;77.90;;;;;;5135221;27;20126;-58
2021/10/23 02:59:57;;;;;;;1.48;0.70;;;14.40;77.90;;;;;;5135532;27;20031;-59
2021/10/23 03:02:23;;;;;;;1.33;0.38;;;14.40;77.90;;;;;;5135090;27;20508;-59
2021/10/23 03:04:49;;;;;;;0.60;0.50;;;14.40;77.90;;;;;;5134763;27;20205;-59
2021/10/23 03:07:15;;;;;;;0.68;0.45;;;14.40;77.90;;;;;;5135377;27;20407;-58
2021/10/23 03:09:40;;;;;;;1.08;0.52;;;14.40;77.90;;;;;;5135048;27;20035;-58
2021/10/23 03:12:06;;;;;;;1.55;0.57;;;14.40;77.90;;;;;;5135198;27;20114;-58
2021/10/23 03:14:32;;;;;;;0.57;0.40;;;14.40;77.90;;;;;;5115499;27;20047;-58
2021/10/23 03:16:57;;;;;;;1.02;0.50;;;14.40;77.90;;;;;;5134863;27;20070;-59
2021/10/23 03:19:23;;;;;;;1.05;0.60;;;14.50;78.00;;;;;;5134362;27;20090;-59
2021/10/23 03:21:49;;;;;;;0.55;0.40;;;14.40;77.90;;;;;;5134915;27;20462;-58
2021/10/23 03:24:14;;;;;;;0.40;0.30;;;14.40;77.90;;;;;;5134221;27;20046;-59
2021/10/23 03:26:40;;;;;;;1.73;0.50;;;14.40;77.90;;;;;;5134448;27;20039;-59
2021/10/23 03:29:06;;;;;;;0.40;0.30;;;14.40;77.90;;;;;;5134596;27;20035;-59
2021/10/23 03:31:32;;;;;;;1.45;0.45;;;14.40;77.90;;;;;;5134582;27;20039;-59
2021/10/23 03:33:59;;;;;;;0.98;0.43;;;14.40;77.90;;;;;;5134164;27;20110;-58
2021/10/23 03:36:25;;;;;;;2.03;0.82;;;14.40;77.90;;;;;;5115132;27;20054;-59
2021/10/23 03:38:51;;;;;;;0.70;0.50;;;14.40;77.90;;;;;;5134537;27;20394;-59
2021/10/23 03:41:17;;;;;;;0.60;0.50;;;14.40;77.90;;;;;;5115353;27;20460;-59
2021/10/23 03:43:42;;;;;;;0.50;0.43;;;14.40;77.90;;;;;;5134013;27;20075;-59
2021/10/23 03:46:08;;;;;;;0.40;0.30;;;14.40;77.90;;;;;;5134168;27;20043;-59
2021/10/23 03:48:33;;;;;;;1.58;0.47;;;14.40;77.90;;;;;;5134582;27;20046;-59
2021/10/23 03:50:59;;;;;;;1.58;0.63;;;14.40;77.90;;;;;;5133713;27;20042;-59
2021/10/23 03:53:25;;;;;;;1.13;0.50;;;14.40;77.90;;;;;;5134034;27;20042;-58
2021/10/23 03:55:51;;;;;;;0.52;0.40;;;14.50;78.00;;;;;;5134244;27;20035;-59
2021/10/23 03:58:17;;;;;;;0.80;0.43;;;14.40;77.90;;;;;;5133561;27;20043;-58
2021/10/23 04:00:43;;;;;;;2.15;0.40;;;14.40;78.00;;;;;;5133086;27;20047;-59
2021/10/23 04:03:08;;;;;;;1.08;0.52;;;14.40;78.00;;;;;;5133943;27;20118;-58
2021/10/23 04:05:34;;;;;;;1.77;0.45;;;14.30;77.90;;;;;;5133636;27;20172;-57
2021/10/23 04:08:01;;;;;;;1.38;0.60;;;14.40;77.90;;;;;;5132680;27;20383;-57
2021/10/23 04:10:27;;;;;;;0.60;0.47;;;14.40;77.90;;;;;;5114456;27;20051;-59
2021/10/23 04:12:52;;;;;;;0.70;0.47;;;14.40;77.90;;;;;;5133788;27;20383;-59
2021/10/23 04:15:18;;;;;;;0.55;0.50;;;14.40;77.90;;;;;;5133616;27;20474;-59
2021/10/23 04:17:44;;;;;;;1.02;0.50;;;14.40;77.90;;;;;;5115107;27;20035;-58
2021/10/23 04:20:10;;;;;;;1.10;0.60;;;14.40;77.90;;;;;;5133569;27;20054;-59
2021/10/23 04:22:36;;;;;;;1.48;0.60;;;14.40;77.90;;;;;;5133354;27;20047;-59
2021/10/23 04:25:02;;;;;;;0.63;0.50;;;14.40;77.90;;;;;;5133661;27;20384;-59
2021/10/23 04:27:27;;;;;;;0.70;0.55;;;14.40;77.90;;;;;;5133798;27;20126;-59
2021/10/23 04:29:53;;;;;;;0.80;0.57;;;14.40;77.90;;;;;;5133377;27;20039;-58
2021/10/23 04:32:19;;;;;;;1.70;0.50;;;14.40;77.90;;;;;;5133813;27;20039;-58
2021/10/23 04:34:44;;;;;;;1.15;0.70;;;14.40;77.90;;;;;;5133555;27;20055;-58
2021/10/23 04:37:10;;;;;;;0.63;0.30;;;14.40;77.90;;;;;;5133434;27;20040;-59
2021/10/23 04:39:36;;;;;;;0.70;0.50;;;14.40;77.90;;;;;;5133102;27;20114;-59
2021/10/23 04:42:02;;;;;;;0.70;0.50;;;14.40;77.90;;;;;;5133428;27;20039;-59
2021/10/23 04:44:28;;;;;;;0.60;0.40;;;14.40;77.90;;;;;;5133649;27;20104;-59
2021/10/23 04:46:54;;;;;;;0.70;0.52;;;14.40;77.90;;;;;;5134044;27;20043;-58
2021/10/23 04:49:19;;;;;;;0.70;0.45;;;14.40;77.90;;;;;;5133330;27;20039;-58
2021/10/23 04:51:45;;;;;;;0.35;0.32;;;14.40;77.90;;;;;;5133133;27;20055;-59
2021/10/23 04:54:11;;;;;;;1.05;0.50;;;14.40;78.50;;;;;;5132970;27;20084;-58
2021/10/23 04:56:37;;;;;;;0.90;0.40;;;14.30;77.90;;;;;;5133106;27;20043;-59
2021/10/23 04:59:03;;;;;;;1.20;0.50;;;14.30;77.90;;;;;;5133268;28;20039;-59
2021/10/23 05:01:28;;;;;;;1.58;0.70;;;14.40;77.90;;;;;;5132767;28;20039;-59
2021/10/23 05:03:54;;;;;;;1.80;0.70;;;14.40;77.90;;;;;;5133179;28;20540;-58
2021/10/23 05:06:20;;;;;;;0.82;0.60;;;14.30;77.90;;;;;;5133202;28;20121;-59
2021/10/23 05:08:46;;;;;;;1.17;0.43;;;14.30;77.90;;;;;;5132897;28;20041;-59
2021/10/23 05:11:12;;;;;;;1.38;0.65;;;14.40;77.90;;;;;;5132536;28;20104;-57
2021/10/23 05:13:37;;;;;;;1.02;0.50;;;14.30;77.90;;;;;;5133285;28;20036;-59
2021/10/23 05:16:04;;;;;;;1.63;0.60;;;14.40;77.90;;;;;;5133343;28;20046;-59
2021/10/23 05:18:30;;;;;;;0.85;0.45;;;14.40;77.90;;;;;;5133169;28;20109;-57
2021/10/23 05:20:56;;;;;;;0.68;0.50;;;14.40;77.80;;;;;;5132512;28;20610;-59
2021/10/23 05:23:21;;;;;;;0.65;0.50;;;14.30;77.80;;;;;;5132952;28;20486;-59
2021/10/23 05:25:47;;;;;;;2.17;0.52;;;14.30;77.80;;;;;;5113493;28;20051;-58
2021/10/23 05:28:13;;;;;;;1.05;0.43;;;14.30;78.40;;;;;;5114496;28;20085;-59
2021/10/23 05:30:39;;;;;;;1.10;0.55;;;14.40;77.80;;;;;;5132836;28;20069;-58
2021/10/23 05:33:06;;;;;;;0.40;0.40;;;14.30;77.80;;;;;;5132497;28;20071;-56
2021/10/23 05:35:32;;;;;;;0.63;0.30;;;14.30;77.80;;;;;;5114050;28;20047;-59
2021/10/23 05:37:58;;;;;;;0.80;0.30;;;14.40;77.80;;;;;;5114063;28;20035;-58
2021/10/23 05:40:24;;;;;;;1.67;0.40;;;14.30;77.80;;;;;;5132465;28;20043;-58
2021/10/23 05:42:50;;;;;;;1.10;0.40;;;14.30;77.70;;;;;;5132245;28;20046;-57
2021/10/23 05:45:16;;;;;;;0.68;0.50;;;14.40;77.80;;;;;;5132455;28;20035;-58
2021/10/23 05:47:42;;;;;;;0.55;0.50;;;14.30;77.80;;;;;;5114919;27;20504;-58
2021/10/23 05:50:08;;;;;;;2.03;0.70;;;14.40;77.80;;;;;;5136255;27;20070;-58
2021/10/23 05:52:35;;;;;;;1.10;0.70;;;14.30;77.80;;;;;;5136835;27;20184;-58
2021/10/23 05:55:02;;;;;;;0.57;0.40;;;14.30;77.80;;;;;;5136117;27;20074;-59
2021/10/23 05:57:28;;;;;;;0.77;0.40;;;14.40;77.80;;;;;;5136013;27;20040;-59
2021/10/23 05:59:53;;;;;;;1.08;0.40;;;14.30;77.80;;;;;;5136234;27;20039;-58
2021/10/23 06:04:53;;;;;;;0.40;0.32;;;14.30;77.80;;;;;;5135104;27;20043;-58
2021/10/23 06:07:20;;;;;;;1.40;0.65;;;14.30;77.80;;;;;;5135663;27;20043;-58
2021/10/23 06:09:47;;;;;;;0.40;0.40;;;14.40;77.80;;;;;;5135612;27;20075;-56
2021/10/23 06:12:13;;;;;;;1.02;0.50;;;14.40;77.80;;;;;;5135293;27;20039;-58
2021/10/23 06:14:39;;;;;;;0.85;0.68;;;14.30;77.80;;;;;;5134987;27;20424;-59
2021/10/23 06:17:05;;;;;;;0.68;0.40;;;14.30;77.70;;;;;;5134806;27;20031;-57
2021/10/23 06:19:35;;;;;;;0.88;0.52;;;14.30;77.70;;;;;;5135104;27;20047;-58
2021/10/23 06:22:01;;;;;;;1.55;0.70;;;14.30;77.70;;;;;;5135218;27;20490;-58
2021/10/23 06:24:27;;;;;;;0.30;0.30;;;14.40;77.80;;;;;;5136188;27;20080;-57
2021/10/23 06:26:53;;;;;;;0.30;0.30;;;14.30;77.70;;;;;;5135506;27;20035;-59
2021/10/23 06:29:19;;;;;;;1.00;0.30;;;14.30;77.70;;;;;;5116350;27;20054;-58
2021/10/23 06:31:45;;;;;;;1.15;0.60;;;14.30;77.70;;;;;;5135767;27;20079;-58
2021/10/23 06:34:10;;;;;;;0.63;0.40;;;14.30;77.60;;;;;;5135867;27;20088;-59
2021/10/23 06:36:36;;;;;;;1.27;0.40;;;14.30;77.70;;;;;;5135304;27;20035;-59
2021/10/23 06:39:02;;;;;;;0.68;0.40;;;14.30;77.70;;;;;;5135892;27;20390;-58
2021/10/23 06:41:29;;;;;;;1.17;0.45;;;14.30;77.70;;;;;;5136019;27;20104;-59
2021/10/23 06:43:55;;;;;;;0.85;0.65;;;14.30;77.70;;;;;;5135363;27;20062;-59
2021/10/23 06:46:23;;;;;;;0.60;0.30;;;14.30;77.60;;;;;;5135508;27;20066;-59
2021/10/23 06:48:52;;;;;;;0.60;0.30;;;14.30;77.60;;;;;;5135446;27;20043;-59
2021/10/23 06:51:18;;;;;;;0.70;0.40;;;14.30;77.60;;;;;;5135770;27;20390;-59
2021/10/23 06:53:44;;;;;;;0.80;0.50;;;14.30;77.60;;;;;;5135933;27;20089;-57
2021/10/23 06:56:10;;;;;;;1.20;0.50;;;14.30;77.60;;;;;;5135723;27;20390;-58
2021/10/23 06:58:35;;;;;;;0.75;0.50;;;14.30;78.20;;;;;;5134906;27;20122;-58
2021/10/23 07:01:04;;;;;;;0.43;0.40;;;14.30;77.60;;;;;;5133730;27;20038;-58
2021/10/23 07:03:30;;;;;;;0.40;0.30;;;14.30;77.60;;;;;;5135639;27;20035;-58
2021/10/23 07:05:56;;;;;;;0.68;0.50;;;14.30;77.60;;;;;;5135227;27;20039;-58
2021/10/23 07:08:21;;;;;;;1.95;0.60;;;14.30;77.60;;;;;;5134563;27;20051;-58
2021/10/23 07:10:47;;;;;;;0.75;0.60;;;14.30;77.60;;;;;;5116691;27;20043;-58
2021/10/23 07:13:13;;;;;;;2.88;0.45;;;14.30;77.60;;;;;;5134937;27;20561;-59
2021/10/23 07:15:39;;;;;;;0.40;0.40;;;14.30;77.60;;;;;;5134447;27;20090;-59
2021/10/23 07:18:05;;;;;;;2.08;0.55;;;14.30;77.70;;;;;;5134829;27;20085;-57
2021/10/23 07:20:32;;;;;;;0.93;0.63;;;14.30;77.60;;;;;;5134310;27;20083;-58
2021/10/23 07:22:58;;;;;;;0.55;0.30;;;14.30;77.60;;;;;;5134535;27;20047;-58
2021/10/23 07:25:28;;;;;;;0.55;0.38;;;14.20;77.60;;;;;;5134918;27;20066;-58
2021/10/23 07:27:54;;;;;;;0.98;0.88;;;14.30;77.60;;;;;;5134726;27;20440;-59
2021/10/23 07:30:20;;;;;;;1.92;0.47;;;14.30;77.60;;;;;;5134470;27;20066;-59
2021/10/23 07:32:46;;;;;;;0.45;0.40;;;14.30;77.70;;;;;;5134207;27;20122;-59
2021/10/23 07:35:12;;;;;;;0.45;0.40;;;14.30;77.60;;;;;;5134461;27;20487;-59
2021/10/23 07:37:39;;;;;;;0.90;0.60;;;14.20;77.60;;;;;;5134560;27;20414;-59
2021/10/23 07:40:07;;;;;;;0.88;0.50;;;14.30;77.60;;;;;;5134576;27;20118;-59
2021/10/23 07:42:33;;;;;;;0.40;0.40;;;14.30;77.60;;;;;;5148528;27;20047;-59
2021/10/23 07:45:00;;;;;;;0.60;0.40;;;14.30;77.60;;;;;;5134336;27;20399;-58
2021/10/23 07:47:25;;;;;;;0.60;0.55;;;14.40;77.70;;;;;;5133753;27;20142;-58
2021/10/23 07:49:53;;;;;;;1.20;0.50;;;14.30;77.60;;;;;;5134204;27;20058;-58
2021/10/23 07:52:18;;;;;;;0.60;0.50;;;14.30;77.60;;;;;;5133741;27;20123;-58
2021/10/23 07:54:45;;;;;;;0.68;0.40;;;14.30;77.70;;;;;;5133671;27;20118;-58
2021/10/23 07:57:11;;;;;;;0.85;0.47;;;14.30;77.60;;;;;;5134253;27;20048;-59
2021/10/23 07:59:36;;;;;;;0.85;0.50;;;14.30;77.60;;;;;;5134019;27;20478;-57
2021/10/23 08:02:06;;;;;;;0.80;0.47;;;14.30;77.70;;;;;;5133995;27;20047;-59
2021/10/23 08:04:32;;;;;;;0.40;0.40;;;14.30;77.60;;;;;;5133607;27;20058;-59
2021/10/23 08:06:59;;;;;;;1.70;0.45;;;14.30;77.60;;;;;;5133973;27;20047;-58
2021/10/23 08:09:29;;;;;;;0.38;0.38;;;14.30;77.60;;;;;;5133189;27;20046;-57
2021/10/23 08:11:55;;;;;;;1.42;0.65;;;14.30;77.70;;;;;;5114793;27;20524;-59
2021/10/23 08:14:21;;;;;;;0.65;0.50;;;14.30;77.60;;;;;;5133826;27;20043;-58
2021/10/23 08:16:47;;;;;;;0.45;0.45;;;14.30;77.70;;;;;;5133818;27;20069;-57
2021/10/23 08:19:12;;;;;;;0.50;0.40;;;14.30;77.60;;;;;;5133126;27;20070;-59
2021/10/23 08:21:39;;;;;;;0.50;0.30;;;14.30;77.60;;;;;;5133266;27;20491;-58
2021/10/23 08:24:06;;;;;;;0.68;0.40;;;14.30;77.60;;;;;;5133298;27;20387;-60
2021/10/23 08:26:34;;;;;;;0.50;0.50;;;14.30;77.60;;;;;;5128091;27;20570;-58
2021/10/23 08:29:00;;;;;;;2.65;0.70;;;14.30;77.60;;;;;;5130360;27;20051;-56
2021/10/23 08:31:26;;;;;;;0.85;0.55;;;14.40;77.70;;;;;;5147168;27;20027;-57
2021/10/23 08:33:54;;;;;;;0.73;0.52;;;14.30;77.60;;;;;;5134020;27;20042;-58
2021/10/23 08:36:20;;;;;;;1.50;0.70;;;14.30;77.70;;;;;;5129043;27;20414;-57
2021/10/23 08:38:46;;;;;;;0.55;0.52;;;14.30;77.60;;;;;;5129025;27;20411;-58
2021/10/23 08:41:12;;;;;;;0.85;0.70;;;14.30;77.60;;;;;;5129675;27;20641;-58
2021/10/23 08:43:44;;;;;;;0.88;0.68;;;14.30;77.60;;;;;;5129163;27;20035;-59
2021/10/23 08:46:14;;;;;;;1.17;0.30;;;14.20;77.60;;;;;;5143287;27;20141;-59
2021/10/23 08:48:44;;;;;;;1.17;0.70;;;14.30;77.60;;;;;;5141720;27;20042;-59
2021/10/23 08:51:09;;;;;;;1.15;0.50;;;14.30;77.60;;;;;;5128368;27;20129;-59
2021/10/23 08:53:40;;;;;;;0.60;0.40;;;14.30;77.60;;;;;;5128614;27;20134;-59
2021/10/23 08:56:08;;;;;;;0.60;0.50;;;14.30;77.60;;;;;;5129050;27;20054;-59
2021/10/23 08:58:38;;;;;;;0.47;0.32;;;14.30;77.60;;;;;;5129179;28;20043;-59
2021/10/23 09:01:07;;;;;;;0.75;0.50;;;14.30;77.60;;;;;;5110543;28;20077;-58
2021/10/23 09:03:33;;;;;;;0.88;0.73;;;14.30;77.60;;;;;;5110093;28;20612;-59
2021/10/23 09:05:59;;;;;;;0.70;0.60;;;14.30;77.60;;;;;;5110322;28;20054;-58
2021/10/23 09:08:26;;;;;;;0.30;0.20;;;14.30;77.60;;;;;;5128798;28;20035;-60
2021/10/23 09:10:53;;;;;;;0.52;0.40;;;14.30;77.60;;;;;;5128875;28;20074;-59
2021/10/23 09:13:33;;;;;;;0.80;0.50;;;14.30;77.60;;;;;;5104699;28;20043;-57
2021/10/23 09:16:15;;;;;;;1.77;0.45;;;14.30;77.50;;;;;;5126972;27;20047;-58
2021/10/23 09:18:46;;;;;;;0.93;0.40;;;14.30;77.50;;;;;;5110475;28;20039;-58
2021/10/23 09:21:20;;;;;;;1.10;0.75;;;14.30;77.60;;;;;;5148947;27;20141;-58
2021/10/23 09:23:46;;;;;;;0.52;0.30;;;14.30;77.50;;;;;;5151392;27;20856;-58
2021/10/23 09:26:34;;;;;;;0.50;0.50;;;14.40;77.60;;;;;;5134340;27;20047;-58
2021/10/23 09:29:14;;;;;;;1.15;0.50;;;14.30;77.50;;;;;;5132797;27;20047;-58
2021/10/23 09:31:46;;;;;;;1.52;0.40;;;14.30;77.50;;;;;;5154060;27;20051;-59
2021/10/23 09:34:20;;;;;;;0.82;0.50;;;14.30;77.60;;;;;;5140996;27;20112;-58
2021/10/23 09:36:48;;;;;;;1.15;0.65;;;14.40;77.70;;;;;;5133103;27;20046;-60
2021/10/23 09:39:25;;;;;;;0.77;0.60;;;14.30;77.60;;;;;;5132543;27;20047;-58
2021/10/23 09:42:09;;;;;;;0.88;0.45;;;14.30;77.60;;;;;;5133183;27;20495;-58
2021/10/23 09:44:37;;;;;;;1.10;0.70;;;14.30;77.50;;;;;;5125397;27;20050;-57
2021/10/23 09:47:04;;;;;;;0.52;0.40;;;14.30;78.20;;;;;;5096865;27;20039;-58
2021/10/23 09:49:29;;;;;;;0.60;0.43;;;14.30;77.60;;;;;;5131054;27;20035;-57
2021/10/23 09:52:03;;;;;;;0.40;0.40;;;14.30;77.60;;;;;;5130373;27;20111;-59
2021/10/23 09:54:29;;;;;;;0.68;0.55;;;14.30;77.60;;;;;;5113280;27;20047;-58
2021/10/23 09:56:55;;;;;;;0.88;0.50;;;14.30;77.60;;;;;;5132037;27;20047;-58
2021/10/23 09:59:27;;;;;;;0.68;0.40;;;14.30;77.60;;;;;;5132029;27;20047;-59
2021/10/23 10:01:57;;;;;;;0.38;0.38;;;14.30;77.60;;;;;;5135234;27;20524;-58
2021/10/23 10:04:24;;;;;;;0.32;0.32;;;14.30;77.60;;;;;;5138990;27;20043;-57
2021/10/23 10:06:53;;;;;;;0.50;0.30;;;14.30;77.60;;;;;;5131885;27;20051;-58
2021/10/23 10:09:23;;;;;;;0.45;0.30;;;14.30;77.60;;;;;;5115552;27;20394;-59
2021/10/23 10:11:51;;;;;;;0.30;0.30;;;14.30;77.60;;;;;;5135009;27;20386;-58
2021/10/23 10:14:24;;;;;;;0.60;0.50;;;14.30;77.60;;;;;;5135409;27;20043;-58
2021/10/23 10:17:00;;;;;;;0.65;0.30;;;14.30;77.50;;;;;;5135431;27;20043;-59
2021/10/23 10:19:26;;;;;;;0.47;0.47;;;14.30;77.50;;;;;;5132511;27;20061;-60
2021/10/23 10:21:53;;;;;;;0.30;0.30;;;14.40;77.60;;;;;;5135192;27;20125;-58
2021/10/23 10:24:23;;;;;;;0.57;0.22;;;14.30;77.50;;;;;;5116580;27;20084;-57
2021/10/23 10:26:57;;;;;;;0.40;0.40;;;14.30;77.50;;;;;;5135296;27;20049;-58
2021/10/23 10:29:26;;;;;;;0.80;0.50;;;14.30;77.50;;;;;;5131806;27;20456;-60
2021/10/23 10:43:01;;;;;;;1.05;0.43;;;14.40;77.60;;;;;;5132197;27;20051;-59
2021/10/23 10:45:52;;;;;;;1.05;0.60;;;14.40;77.60;;;;;;5095748;28;20047;-58
2021/10/23 10:48:26;;;;;;;0.77;0.47;;;14.40;77.60;;;;;;5114443;28;20046;-56
2021/10/23 10:51:00;;;;;;;0.65;0.35;;;14.30;77.50;;;;;;5128388;27;20414;-59
2021/10/23 10:53:39;;;;;;;0.68;0.47;;;14.40;77.60;;;;;;5134812;27;20351;-59
2021/10/23 10:56:13;;;;;;;0.73;0.38;;;14.40;77.60;;;;;;5135037;27;20047;-60
2021/10/23 10:58:41;;;;;;;0.95;0.60;;;14.40;77.60;;;;;;5150386;27;20384;-59
2021/10/23 11:01:20;;;;;;;0.50;0.40;;;14.40;77.60;;;;;;5134581;27;20130;-60
2021/10/23 11:03:52;;;;;;;0.60;0.40;;;14.40;77.60;;;;;;5134923;27;20051;-57
2021/10/23 11:06:35;;;;;;;0.60;0.47;;;14.40;77.60;;;;;;5134618;27;20101;-57
2021/10/23 11:09:20;;;;;;;0.40;0.30;;;14.40;77.50;;;;;;5134792;27;20088;-58
2021/10/23 11:11:47;;;;;;;1.00;0.50;;;14.40;77.60;;;;;;5134202;27;20076;-58
2021/10/23 11:16:48;;;;;;;0.20;0.20;;;14.40;77.50;;;;;;5134531;27;20078;-58
2021/10/23 11:19:20;;;;;;;0.88;0.50;;;14.40;77.60;;;;;;5134555;27;20069;-58
2021/10/23 11:21:51;;;;;;;0.57;0.28;;;14.40;77.60;;;;;;5134024;27;20047;-57
2021/10/23 11:24:17;;;;;;;0.63;0.40;;;14.40;77.60;;;;;;5133407;27;20080;-59
2021/10/23 11:26:50;;;;;;;0.30;0.20;;;14.50;77.60;;;;;;5134613;27;20047;-60
2021/10/23 11:29:22;;;;;;;0.45;0.30;;;14.40;77.50;;;;;;5134526;27;20035;-59
2021/10/23 11:31:49;;;;;;;0.52;0.30;;;14.40;77.50;;;;;;5134661;27;20035;-60
2021/10/23 11:34:27;;;;;;;0.52;0.40;;;14.40;77.50;;;;;;5134486;27;20031;-60
2021/10/23 11:37:07;;;;;;;0.63;0.30;;;14.40;77.50;;;;;;5134503;27;20079;-60
2021/10/23 11:39:36;;;;;;;0.85;0.40;;;14.40;77.50;;;;;;5134440;27;20125;-61
2021/10/23 11:42:44;;;;;;;0.77;0.40;;;14.40;77.50;;;;;;5134297;27;20444;-60
2021/10/23 11:45:22;;;;;;;0.50;0.50;;;14.40;77.40;;;;;;5046210;28;20063;-57
2021/10/23 11:47:49;;;;;;;0.40;0.30;;;14.40;77.50;;;;;;5031452;28;20053;-59
2021/10/23 11:50:20;;;;;;;0.43;0.30;;;14.50;77.60;;;;;;5039016;28;20063;-58
2021/10/23 11:52:57;;;;;;;1.48;0.43;;;14.40;77.50;;;;;;5050743;28;20060;-60
2021/10/23 11:55:42;;;;;;;0.38;0.30;;;14.40;77.50;;;;;;5050621;28;20156;-59
2021/10/23 11:58:10;;;;;;;0.50;0.32;;;14.40;77.50;;;;;;5048829;28;20188;-58
2021/10/23 12:00:41;;;;;;;0.28;0.28;;;14.40;77.50;;;;;;5048578;28;20061;-58
2021/10/23 12:03:15;;;;;;;0.70;0.32;;;14.40;77.50;;;;;;5060636;28;20049;-59
2021/10/23 12:05:49;;;;;;;0.40;0.40;;;14.40;77.50;;;;;;5070079;28;20058;-58
2021/10/23 12:08:21;;;;;;;0.90;0.50;;;14.40;77.50;;;;;;5067264;28;20060;-59
2021/10/23 12:11:03;;;;;;;3.17;1.23;;;14.40;77.40;;;;;;5050009;28;20405;-62
2021/10/23 12:13:30;;;;;;;3.58;0.60;;;14.40;76.60;;;;;;5033052;28;20397;-61
2021/10/23 12:16:06;;;;;;;1.73;0.98;;;14.40;76.70;;;;;;5064792;28;20053;-60
2021/10/23 12:18:39;;;;;;;2.42;0.90;;;14.50;76.80;;;;;;5069959;28;20517;-56
2021/10/23 12:21:11;;;;;;;1.83;0.50;;;14.40;76.80;;;;;;5089733;27;20047;-57
2021/10/23 12:23:50;;;;;;;1.23;0.43;;;14.40;76.80;;;;;;5133386;27;20138;-57
2021/10/23 12:26:17;;;;;;;0.63;0.50;;;14.40;76.80;;;;;;5133317;27;20499;-58
2021/10/23 12:29:05;;;;;;;1.38;0.60;;;14.40;76.90;;;;;;5132821;27;20043;-58
2021/10/23 12:32:12;;;;;;;1.02;0.50;;;14.40;76.80;;;;;;5132725;27;20047;-58
2021/10/23 12:34:50;;;;;;;1.15;0.50;;;14.40;76.90;;;;;;5049969;28;20052;-56
2021/10/23 12:37:32;;;;;;;1.23;0.55;;;14.40;77.00;;;;;;5049445;28;20057;-58
2021/10/23 12:40:27;;;;;;;0.98;0.60;;;14.50;77.00;;;;;;5049190;28;20052;-61
2021/10/23 12:42:58;;;;;;;0.95;0.60;;;14.40;77.00;;;;;;5049046;28;20488;-59
2021/10/23 12:45:30;;;;;;;1.85;0.50;;;14.40;77.00;;;;;;5049396;28;20556;-58
2021/10/23 12:47:58;;;;;;;1.55;0.60;;;14.50;77.10;;;;;;5032268;28;20040;-60
2021/10/23 12:50:24;;;;;;;0.80;0.60;;;14.50;77.10;;;;;;5049938;28;20045;-61
2021/10/23 12:52:51;;;;;;;0.63;0.50;;;14.50;77.20;;;;;;5049732;28;20079;-59
2021/10/23 12:55:18;;;;;;;3.38;1.25;;;14.50;77.20;;;;;;5049767;28;20127;-61
2021/10/23 12:57:44;;;;;;;5.32;1.30;;;14.40;75.70;;;;;;5048944;28;20103;-59
2021/10/23 13:00:10;;;;;;;3.38;1.15;;;14.40;75.50;;;;;;5049676;28;20041;-60
2021/10/23 13:02:36;;;;;;;3.38;1.00;;;14.40;75.60;;;;;;5049042;28;20400;-58
2021/10/23 13:05:03;;;;;;;4.10;1.05;;;14.30;75.70;;;;;;5049407;28;20053;-59
2021/10/23 13:07:29;;;;;;;8.18;1.30;;;14.30;75.80;;;;;;5049708;28;20041;-60
2021/10/23 13:09:55;;;;;;;3.80;1.27;;;14.30;75.90;;;;;;5049799;28;20460;-67